Aviation Digital Data Service (ADDS)

Output produced by METARs form (1347 UTC 08 May 2021)
found at http://aviationweather.gov/metar/data/
 
KBPT 081253Z 16005KT 10SM CLR 21/21 A3003 RMK AO2 SLP168 T02110206
KBPT 081120Z 0812/0912 15004KT P6SM FEW250 
     FM081400 16014G22KT P6SM SCT250 
     FM090100 16013KT P6SM BKN035